Airfield :
LOGIN :

Register | Disclaimer

   EN    FR    IT 

 










Legend :    VFR   Marginal VFR   IFR   Intensive IFR   Very Intensive IFR
Visi :
Ceiling :
>= 8 km
>= 3000ft
5 to 8 km
1000 to 3000 ft
1500m to 5 km
500 to 1000 ft
800 to 1500m
200 to 500 ft
< 800m
< 200 ft
Symbols :   Thunderstorms  Fog  Heavy snow  Heavy precipitations  Wind > 20 kt
SIGMETs :     Misc.  Thunderstorms  Icing  Turbulence  Mountain Waves  Volcanic Ashes






- Airport Elevation : 464 ft
- IATA code : EVX


LFOE - Evreux

CURRENT METAR :
  • 280430Z AUTO 21010KT CAVOK 09/08 Q1008 TEMPO BKN009

EXPIRED METARs :
  • 280400Z AUTO 21009KT CAVOK 09/08 Q1008
  • 280330Z AUTO 21007KT CAVOK 10/08 Q1008
  • 280300Z AUTO 23006KT 9999 FEW016 SCT250 10/09 Q1007
  • 280230Z AUTO 23010KT 9999 SCT022 BKN210 10/09 Q1008
  • 280200Z AUTO 22007KT 9999 BKN022 BKN040 BKN230 11/09 Q1007

TAF AMD TAF LFOE
Valid from the 28 at 04:00 until the 29 at 03:00 UTC


280406Z 2804/2903 20010G20KT CAVOK
BECMG 2805/2806 SCT014 BKN020
PROB40
TEMPO 2805/2809 BKN009
BECMG 2809/2811 23015G30KT BKN030
PROB40
TEMPO 2812/2816 4000 -SHRA BKN020TCU
BECMG 2819/2821 23010G20KT
PROB40
TEMPO 2821/2824 26015G30KT 4000 -RA



MET'MAP, your aeronautical weather chart ! - Copyright ORBIFLY December 2007 - Disclaimer

ORBIFLY MET'MAP TEAM :

Programming & Development : Alexandra Zaïnal
Concept & original design : Baudouin d'Aumeries
Assistance for programming : Marc-Olivier Méhu
Technical & hardware support : Manuel Goepfert

Contact : metmap@orbifly.com




SOURCES & CREDITS :

   NOAA